Flugplatz Tannheim

Für EDMT sind keine METAR/TAF Berichte vorhanden.
Es werden die Flugwettermeldungen vom Flugplatz Memmingen Allgau in 10 km Entfernung angezeigt.

Bericht für EDJA

vom 25.10. um 16:50 UTC

Wind 3 kt aus 160°

Sichtweite 10 km oder mehr

gute Sicht, keine Wolken < 5000 ft, keine CB, keine Wettererscheinungen (CAVOK)

Temperatur 7.0°C

Taupunkt 6.0°C

Luftfeuchtigkeit 93%

Luftdruck 1021 hPa

EDJA 251650Z 16003KT CAVOK 07/06 Q1021

Prognose für EDJA

vom 25.10. um 14:00 UTC

Zwischen 15:00 UTC und 00:00 UTC

variable Windrichtung mit 2 kt

Sichtweite 10 km oder mehr

keine signifikanten Wettererscheinungen

keine Wolken


Zwischen 22:00 UTC und 00:00 UTC zeitweise

Sichtweite 1200 m

Nebelschwaden

TAF EDJA 251400Z 2515/2524 VRB02KT CAVOK TEMPO 2522/2524 1200 BCFG
Impressum